Time;durP1;ratioP1;P1;durP2;ratioP2;P2;SDS_P1;SDS_P2;PMS_P1;PMS_P2;Temp;Humidity;BMP_temperature;BMP_pressure;BME280_temperature;BME280_humidity;BME280_pressure;Samples;Min_cycle;Max_cycle;Signal;HPM_P1;HPM_P2
2022/12/03 00:00:59;;;;;;;13.32;10.38;;;;;;;;;;4947615;28;20038;-77
2022/12/03 00:03:28;;;;;;;8.90;7.82;;;;;;;;;;4953742;28;20031;-77
2022/12/03 00:05:54;;;;;;;12.65;9.15;;;;;;;;;;4957913;28;20042;-77
2022/12/03 00:08:19;;;;;;;10.30;8.00;;;;;;;;;;4955297;28;20035;-77
2022/12/03 00:10:45;;;;;;;8.65;7.63;;;;;;;;;;4956006;28;20071;-77
2022/12/03 00:13:11;;;;;;;9.88;8.95;;;;;;;;;;4963352;28;20023;-77
2022/12/03 00:15:37;;;;;;;8.63;7.47;;;;;;;;;;4954151;28;20027;-77
2022/12/03 00:18:03;;;;;;;41.25;9.00;;;;;;;;;;4966823;28;20036;-77
2022/12/03 00:20:29;;;;;;;11.27;8.68;;;;;;;;;;4954386;28;20122;-77
2022/12/03 00:22:59;;;;;;;13.05;9.20;;;;;;;;;;4955099;28;20035;-77
2022/12/03 00:25:30;;;;;;;9.73;8.02;;;;;;;;;;4954781;28;20043;-77
2022/12/03 00:28:00;;;;;;;15.25;9.38;;;;;;;;;;4960837;28;20031;-76
2022/12/03 00:30:31;;;;;;;11.77;7.00;;;;;;;;;;4951299;28;20371;-76
2022/12/03 00:32:59;;;;;;;14.20;8.07;;;;;;;;;;4954520;28;20473;-76
2022/12/03 00:35:27;;;;;;;10.68;7.50;;;;;;;;;;4948870;28;20042;-76
2022/12/03 00:37:53;;;;;;;9.32;8.00;;;;;;;;;;4954396;28;20489;-76
2022/12/03 00:40:22;;;;;;;12.43;8.95;;;;;;;;;;4934120;29;20043;-76
2022/12/03 00:42:48;;;;;;;13.98;8.70;;;;;;;;;;4952765;28;20051;-76
2022/12/03 00:45:13;;;;;;;14.75;9.70;;;;;;;;;;4952424;28;20094;-76
2022/12/03 00:47:42;;;;;;;12.02;8.30;;;;;;;;;;4976472;23;20055;-72
2022/12/03 00:50:10;;;;;;;10.30;7.57;;;;;;;;;;4952119;28;20035;-72
2022/12/03 00:52:36;;;;;;;11.40;8.13;;;;;;;;;;4945314;28;20031;-72
2022/12/03 00:55:02;;;;;;;8.70;7.22;;;;;;;;;;4948213;29;20034;-72
2022/12/03 00:57:31;;;;;;;10.13;9.05;;;;;;;;;;4949235;28;20038;-71
2022/12/03 00:59:56;;;;;;;10.55;8.30;;;;;;;;;;4932326;29;20036;-71
2022/12/03 01:02:22;;;;;;;16.08;10.25;;;;;;;;;;4932407;29;20070;-71
2022/12/03 01:04:50;;;;;;;12.10;9.68;;;;;;;;;;4945839;29;20027;-71
2022/12/03 01:07:16;;;;;;;12.40;8.77;;;;;;;;;;4942485;29;20474;-71
2022/12/03 01:09:56;;;;;;;11.02;9.00;;;;;;;;;;4939410;29;20046;-71
2022/12/03 01:12:22;;;;;;;13.18;8.45;;;;;;;;;;4921910;29;20051;-71
2022/12/03 01:14:48;;;;;;;12.95;9.60;;;;;;;;;;4935765;29;20032;-71
2022/12/03 01:17:14;;;;;;;15.07;9.20;;;;;;;;;;4946527;28;20115;-71
2022/12/03 01:19:40;;;;;;;12.88;8.65;;;;;;;;;;4928323;29;20036;-71
2022/12/03 01:22:09;;;;;;;13.35;9.80;;;;;;;;;;4941039;29;20122;-71
2022/12/03 01:24:35;;;;;;;15.75;11.85;;;;;;;;;;4927696;29;20028;-72
2022/12/03 01:27:05;;;;;;;12.20;10.98;;;;;;;;;;4948107;29;20042;-72
2022/12/03 01:29:31;;;;;;;18.20;11.60;;;;;;;;;;4932300;29;20038;-72
2022/12/03 01:32:15;;;;;;;14.93;13.23;;;;;;;;;;4946543;29;20019;-72
2022/12/03 01:34:47;;;;;;;12.73;10.13;;;;;;;;;;4939097;29;20043;-72
2022/12/03 01:37:14;;;;;;;12.95;10.52;;;;;;;;;;4946293;28;20039;-72
2022/12/03 01:39:42;;;;;;;16.35;11.52;;;;;;;;;;4941603;29;20043;-72
2022/12/03 01:42:11;;;;;;;17.50;11.75;;;;;;;;;;4926303;29;20039;-72
2022/12/03 01:44:45;;;;;;;18.92;12.63;;;;;;;;;;4931547;29;20036;-72
2022/12/03 01:47:15;;;;;;;16.05;11.20;;;;;;;;;;4957939;28;20039;-70
2022/12/03 01:49:48;;;;;;;14.48;10.43;;;;;;;;;;4944815;29;20027;-72
2022/12/03 01:52:17;;;;;;;17.80;14.35;;;;;;;;;;4941296;29;20024;-71
2022/12/03 01:54:48;;;;;;;13.23;10.15;;;;;;;;;;4934615;29;20035;-71
2022/12/03 01:57:19;;;;;;;15.57;10.88;;;;;;;;;;4940849;28;20042;-71
2022/12/03 01:59:50;;;;;;;14.40;12.25;;;;;;;;;;4936495;29;20407;-72
2022/12/03 02:02:20;;;;;;;18.25;11.35;;;;;;;;;;4955704;28;20036;-72
2022/12/03 02:04:48;;;;;;;16.98;14.95;;;;;;;;;;4928788;29;20035;-72
2022/12/03 02:07:34;;;;;;;17.70;12.07;;;;;;;;;;4936920;28;20031;-72
2022/12/03 02:10:01;;;;;;;17.73;11.63;;;;;;;;;;4948410;28;20043;-72
2022/12/03 02:12:35;;;;;;;16.67;11.38;;;;;;;;;;4948458;29;20038;-72
2022/12/03 02:15:04;;;;;;;18.60;12.25;;;;;;;;;;4929577;29;20501;-72
2022/12/03 02:17:35;;;;;;;18.77;12.65;;;;;;;;;;4945231;28;20027;-71
2022/12/03 02:20:04;;;;;;;15.43;11.20;;;;;;;;;;4950083;28;20031;-72
2022/12/03 02:22:41;;;;;;;16.90;13.52;;;;;;;;;;4944523;29;20035;-71
2022/12/03 02:25:33;;;;;;;19.90;14.57;;;;;;;;;;4924231;29;20036;-71
2022/12/03 02:28:00;;;;;;;15.90;12.68;;;;;;;;;;4921354;29;20499;-71
2022/12/03 02:30:28;;;;;;;18.60;12.23;;;;;;;;;;4925550;29;20135;-72
2022/12/03 02:32:57;;;;;;;23.83;14.80;;;;;;;;;;4937296;29;20039;-71
2022/12/03 02:35:35;;;;;;;19.13;15.70;;;;;;;;;;4941427;29;20032;-72
2022/12/03 02:38:09;;;;;;;22.48;14.57;;;;;;;;;;4932480;29;20059;-72
2022/12/03 02:40:38;;;;;;;18.27;13.98;;;;;;;;;;4933256;29;20039;-72
2022/12/03 02:43:06;;;;;;;19.70;14.48;;;;;;;;;;4952704;28;20031;-71
2022/12/03 02:45:36;;;;;;;17.15;12.48;;;;;;;;;;4925814;29;20406;-71
2022/12/03 02:48:07;;;;;;;22.02;14.75;;;;;;;;;;4931899;29;20036;-72
2022/12/03 02:50:34;;;;;;;20.52;11.63;;;;;;;;;;4914365;29;20032;-72
2022/12/03 02:53:03;;;;;;;18.48;15.75;;;;;;;;;;4928424;29;20031;-72
2022/12/03 02:55:30;;;;;;;18.33;13.25;;;;;;;;;;4942350;29;20032;-72
2022/12/03 02:57:58;;;;;;;22.60;16.55;;;;;;;;;;4934418;29;20027;-72
2022/12/03 03:00:24;;;;;;;22.10;14.23;;;;;;;;;;4933742;29;20043;-72
2022/12/03 03:02:50;;;;;;;18.85;12.88;;;;;;;;;;4946236;28;20067;-72
2022/12/03 03:05:17;;;;;;;17.90;11.82;;;;;;;;;;4937697;29;20552;-72
2022/12/03 03:07:48;;;;;;;19.73;16.00;;;;;;;;;;4938052;29;20031;-72
2022/12/03 03:10:17;;;;;;;30.05;15.75;;;;;;;;;;4915808;29;20031;-72
2022/12/03 03:12:45;;;;;;;25.02;14.80;;;;;;;;;;4955229;28;20038;-72
2022/12/03 03:15:12;;;;;;;15.43;12.88;;;;;;;;;;4935355;29;20054;-72
2022/12/03 03:17:38;;;;;;;21.38;15.23;;;;;;;;;;4943811;28;20501;-71
2022/12/03 03:20:08;;;;;;;19.90;14.35;;;;;;;;;;4927521;29;20393;-71
2022/12/03 03:22:36;;;;;;;17.27;13.63;;;;;;;;;;4942640;29;20031;-71
2022/12/03 03:25:02;;;;;;;20.02;14.82;;;;;;;;;;4950292;29;20032;-71
2022/12/03 03:27:32;;;;;;;17.13;13.57;;;;;;;;;;4943626;28;20031;-72
2022/12/03 03:29:58;;;;;;;20.77;14.40;;;;;;;;;;4936625;29;20043;-71
2022/12/03 03:32:27;;;;;;;21.50;13.75;;;;;;;;;;4934039;29;20050;-71
2022/12/03 03:34:54;;;;;;;28.27;14.50;;;;;;;;;;4949312;29;20028;-71
2022/12/03 03:37:22;;;;;;;20.25;14.60;;;;;;;;;;4941425;29;20035;-71
2022/12/03 03:39:48;;;;;;;21.55;15.27;;;;;;;;;;4938335;29;20035;-71
2022/12/03 03:42:19;;;;;;;17.55;14.73;;;;;;;;;;4936383;29;20036;-71
2022/12/03 03:44:47;;;;;;;20.50;14.68;;;;;;;;;;4953032;29;20043;-71
2022/12/03 03:47:16;;;;;;;14.32;12.82;;;;;;;;;;4938519;28;20050;-71
2022/12/03 03:49:42;;;;;;;20.73;13.93;;;;;;;;;;4935000;29;20047;-71
2022/12/03 03:52:10;;;;;;;21.63;15.45;;;;;;;;;;4939959;29;20031;-71
2022/12/03 03:54:41;;;;;;;20.73;18.27;;;;;;;;;;4938755;29;20509;-71
2022/12/03 03:57:12;;;;;;;23.98;14.75;;;;;;;;;;4949076;28;20039;-70
2022/12/03 03:59:37;;;;;;;19.70;14.73;;;;;;;;;;4917086;29;20050;-71
2022/12/03 04:02:12;;;;;;;17.73;14.70;;;;;;;;;;4934775;29;20031;-71
2022/12/03 04:04:37;;;;;;;17.33;12.40;;;;;;;;;;4927702;29;20039;-71
2022/12/03 04:07:03;;;;;;;17.52;12.85;;;;;;;;;;4946539;28;20482;-71
2022/12/03 04:09:31;;;;;;;21.45;15.30;;;;;;;;;;4948284;29;20027;-71
2022/12/03 04:14:42;;;;;;;20.58;14.75;;;;;;;;;;4938972;29;20035;-70
2022/12/03 04:17:08;;;;;;;22.67;14.07;;;;;;;;;;4947602;29;20083;-71
2022/12/03 04:19:36;;;;;;;19.83;14.30;;;;;;;;;;4937594;29;20046;-71
2022/12/03 04:24:48;;;;;;;16.98;12.65;;;;;;;;;;4935182;29;20036;-71
2022/12/03 04:29:58;;;;;;;20.90;14.52;;;;;;;;;;4933208;29;20215;-70
2022/12/03 04:37:58;;;;;;;18.33;12.98;;;;;;;;;;4950635;28;20042;-70
2022/12/03 04:43:08;;;;;;;19.50;13.10;;;;;;;;;;4931134;29;20036;-71
2022/12/03 04:45:34;;;;;;;19.23;12.20;;;;;;;;;;4933008;29;20059;-71
2022/12/03 04:48:01;;;;;;;18.33;13.02;;;;;;;;;;4935997;28;20039;-71
2022/12/03 04:50:29;;;;;;;18.10;12.35;;;;;;;;;;4928345;29;20502;-71
2022/12/03 04:52:59;;;;;;;19.50;12.50;;;;;;;;;;4931852;29;20506;-71
2022/12/03 04:55:25;;;;;;;20.02;14.25;;;;;;;;;;4927835;29;20031;-70
2022/12/03 04:57:51;;;;;;;19.95;12.45;;;;;;;;;;4926847;29;20401;-71
2022/12/03 05:00:19;;;;;;;16.95;13.02;;;;;;;;;;4942250;29;20035;-70
2022/12/03 05:02:45;;;;;;;18.52;15.65;;;;;;;;;;4937469;29;20039;-71
2022/12/03 05:05:13;;;;;;;17.80;12.23;;;;;;;;;;4928550;29;20031;-71
2022/12/03 05:07:41;;;;;;;22.35;13.77;;;;;;;;;;4935503;29;20031;-70
2022/12/03 05:10:10;;;;;;;17.90;13.48;;;;;;;;;;4937650;29;20496;-71
2022/12/03 05:12:39;;;;;;;20.52;14.40;;;;;;;;;;4941886;29;20027;-71
2022/12/03 05:15:05;;;;;;;21.25;11.98;;;;;;;;;;4930867;29;20024;-71
2022/12/03 05:17:33;;;;;;;26.17;13.82;;;;;;;;;;4939628;28;20028;-71
2022/12/03 05:22:46;;;;;;;17.15;12.75;;;;;;;;;;4950901;29;20034;-71
2022/12/03 05:25:17;;;;;;;20.02;14.13;;;;;;;;;;4927522;29;20036;-71
2022/12/03 05:27:43;;;;;;;13.73;10.60;;;;;;;;;;4935014;28;20028;-71
2022/12/03 05:30:09;;;;;;;15.05;11.82;;;;;;;;;;4934318;29;20039;-70
2022/12/03 05:32:37;;;;;;;25.33;14.00;;;;;;;;;;4951230;29;20034;-70
2022/12/03 05:35:08;;;;;;;21.83;14.73;;;;;;;;;;4930830;29;20032;-71
2022/12/03 05:37:34;;;;;;;21.85;12.52;;;;;;;;;;4934575;29;20023;-71
2022/12/03 05:40:02;;;;;;;23.52;14.52;;;;;;;;;;4945584;29;20485;-71
2022/12/03 05:45:14;;;;;;;19.25;13.27;;;;;;;;;;4924528;29;20518;-71
2022/12/03 05:47:43;;;;;;;20.35;14.73;;;;;;;;;;4948575;28;20040;-70
2022/12/03 05:50:13;;;;;;;17.40;11.70;;;;;;;;;;4935958;29;20390;-71
2022/12/03 05:52:41;;;;;;;17.30;13.70;;;;;;;;;;4944394;29;20038;-70
2022/12/03 05:55:08;;;;;;;17.80;12.35;;;;;;;;;;4933348;29;20031;-71
2022/12/03 05:57:37;;;;;;;24.25;12.65;;;;;;;;;;4935699;28;20394;-70
2022/12/03 06:00:04;;;;;;;15.20;12.82;;;;;;;;;;4935025;29;20027;-70
2022/12/03 06:02:38;;;;;;;18.45;12.60;;;;;;;;;;4939661;29;20059;-70
2022/12/03 06:05:04;;;;;;;25.65;14.75;;;;;;;;;;4929404;29;20030;-70
2022/12/03 06:07:30;;;;;;;22.05;13.82;;;;;;;;;;4934135;29;20035;-70
2022/12/03 06:09:58;;;;;;;14.93;12.38;;;;;;;;;;4939357;29;20031;-71
2022/12/03 06:12:28;;;;;;;18.38;13.80;;;;;;;;;;4943706;29;20054;-71
2022/12/03 06:14:54;;;;;;;19.40;14.90;;;;;;;;;;4932818;29;20039;-70
2022/12/03 06:17:20;;;;;;;16.13;12.85;;;;;;;;;;4941951;29;20102;-70
2022/12/03 06:19:48;;;;;;;16.05;13.32;;;;;;;;;;4929454;29;20035;-70
2022/12/03 06:22:14;;;;;;;19.73;13.07;;;;;;;;;;4945770;29;20023;-70
2022/12/03 06:24:40;;;;;;;15.75;11.65;;;;;;;;;;4933419;29;20086;-70
2022/12/03 06:27:06;;;;;;;18.30;11.88;;;;;;;;;;4951313;28;20055;-71
2022/12/03 06:29:36;;;;;;;17.15;11.70;;;;;;;;;;4933217;29;20032;-71
2022/12/03 06:32:05;;;;;;;17.30;13.35;;;;;;;;;;4943981;29;20034;-72
2022/12/03 06:34:33;;;;;;;19.48;13.10;;;;;;;;;;4936286;29;20027;-71
2022/12/03 06:36:59;;;;;;;16.55;12.90;;;;;;;;;;4936584;28;20051;-71
2022/12/03 06:39:24;;;;;;;16.75;11.73;;;;;;;;;;4919780;29;20091;-71
2022/12/03 06:41:50;;;;;;;15.82;10.45;;;;;;;;;;4923943;29;20646;-71
2022/12/03 06:44:18;;;;;;;18.30;13.38;;;;;;;;;;4932253;29;20482;-73
2022/12/03 06:46:46;;;;;;;26.20;15.82;;;;;;;;;;4932750;28;20438;-71
2022/12/03 06:49:14;;;;;;;23.58;15.45;;;;;;;;;;4970589;23;20050;-75
2022/12/03 06:51:43;;;;;;;19.88;12.13;;;;;;;;;;4967202;28;20504;-76
2022/12/03 06:54:10;;;;;;;19.13;13.02;;;;;;;;;;4966891;28;20053;-77
2022/12/03 06:56:35;;;;;;;20.08;13.45;;;;;;;;;;4974076;28;20035;-77
2022/12/03 06:59:03;;;;;;;19.70;14.18;;;;;;;;;;4973031;28;20039;-77
2022/12/03 07:01:29;;;;;;;18.63;12.30;;;;;;;;;;4974734;28;20081;-77
2022/12/03 07:03:55;;;;;;;19.42;13.20;;;;;;;;;;4971333;28;20039;-76
2022/12/03 07:06:23;;;;;;;18.63;14.15;;;;;;;;;;4971402;28;20449;-76
2022/12/03 07:08:51;;;;;;;19.98;14.40;;;;;;;;;;4970435;28;20057;-76
2022/12/03 07:11:38;;;;;;;21.85;13.68;;;;;;;;;;4973943;28;20035;-75
2022/12/03 07:14:08;;;;;;;21.95;13.60;;;;;;;;;;4972171;28;20480;-75
2022/12/03 07:16:34;;;;;;;19.15;14.50;;;;;;;;;;4970504;28;20031;-75
2022/12/03 07:19:00;;;;;;;16.30;13.88;;;;;;;;;;4970855;28;20027;-75
2022/12/03 07:21:30;;;;;;;23.17;15.10;;;;;;;;;;4974085;28;20034;-74
2022/12/03 07:23:56;;;;;;;17.42;14.00;;;;;;;;;;4969076;28;20481;-74
2022/12/03 07:26:22;;;;;;;17.65;12.57;;;;;;;;;;4973887;28;20122;-74
2022/12/03 07:28:52;;;;;;;26.30;14.13;;;;;;;;;;4975376;28;20031;-74
2022/12/03 07:31:21;;;;;;;21.33;14.65;;;;;;;;;;4972717;28;20042;-74
2022/12/03 07:33:49;;;;;;;23.85;14.77;;;;;;;;;;4970449;28;20493;-75
2022/12/03 07:36:15;;;;;;;20.30;14.70;;;;;;;;;;4971143;28;20115;-74
2022/12/03 07:38:43;;;;;;;23.35;15.45;;;;;;;;;;4970267;28;20433;-74
2022/12/03 07:41:09;;;;;;;21.92;15.65;;;;;;;;;;4972371;28;20039;-72
2022/12/03 07:43:37;;;;;;;19.83;14.50;;;;;;;;;;4972186;28;20493;-75
2022/12/03 07:46:10;;;;;;;19.67;14.48;;;;;;;;;;4947957;28;20034;-74
2022/12/03 07:48:41;;;;;;;23.75;17.05;;;;;;;;;;4968231;28;20027;-74
2022/12/03 07:51:13;;;;;;;26.85;17.55;;;;;;;;;;4972180;28;20035;-75
2022/12/03 07:53:39;;;;;;;20.42;14.88;;;;;;;;;;4972178;28;20034;-75
2022/12/03 07:56:07;;;;;;;21.92;17.38;;;;;;;;;;4972058;28;20481;-76
2022/12/03 07:58:33;;;;;;;26.48;18.65;;;;;;;;;;4969021;28;20054;-76
2022/12/03 08:01:04;;;;;;;33.50;15.80;;;;;;;;;;4966397;28;20038;-76
2022/12/03 08:03:34;;;;;;;25.15;17.08;;;;;;;;;;4963661;28;20035;-76
2022/12/03 08:06:00;;;;;;;32.45;20.13;;;;;;;;;;4969517;28;20035;-76
2022/12/03 08:08:26;;;;;;;25.92;17.45;;;;;;;;;;4970196;28;20038;-75
2022/12/03 08:10:54;;;;;;;23.17;17.83;;;;;;;;;;4969742;28;20039;-75
2022/12/03 08:13:20;;;;;;;25.58;19.67;;;;;;;;;;4956946;28;20485;-76
2022/12/03 08:15:48;;;;;;;26.67;17.30;;;;;;;;;;4969186;28;20035;-75
2022/12/03 08:18:18;;;;;;;28.13;20.42;;;;;;;;;;4971336;28;20022;-75
2022/12/03 08:20:45;;;;;;;21.45;16.98;;;;;;;;;;4972242;28;20039;-75
2022/12/03 08:23:18;;;;;;;25.40;16.52;;;;;;;;;;4971506;28;20031;-75
2022/12/03 08:25:47;;;;;;;21.40;16.58;;;;;;;;;;4973433;28;20037;-75
2022/12/03 08:28:13;;;;;;;28.00;17.40;;;;;;;;;;4970734;28;20038;-74
2022/12/03 08:30:47;;;;;;;23.00;18.95;;;;;;;;;;4969761;28;20039;-75
2022/12/03 08:33:24;;;;;;;20.90;15.98;;;;;;;;;;4955063;28;20029;-74
2022/12/03 08:35:50;;;;;;;21.00;17.48;;;;;;;;;;4956716;28;20477;-75
2022/12/03 08:38:17;;;;;;;26.85;16.60;;;;;;;;;;4953125;28;20126;-75
2022/12/03 08:40:44;;;;;;;29.65;17.50;;;;;;;;;;4972676;28;20049;-75
2022/12/03 08:43:27;;;;;;;25.02;17.20;;;;;;;;;;4973596;28;20026;-75
2022/12/03 08:45:56;;;;;;;21.60;16.27;;;;;;;;;;4966967;28;20042;-76
2022/12/03 08:48:33;;;;;;;26.90;19.15;;;;;;;;;;4971955;28;20042;-76
2022/12/03 08:51:13;;;;;;;24.90;17.00;;;;;;;;;;4969942;28;20031;-76
2022/12/03 08:53:45;;;;;;;24.38;18.08;;;;;;;;;;4974017;28;20561;-74
2022/12/03 08:56:18;;;;;;;24.58;19.13;;;;;;;;;;4972541;28;20035;-74
2022/12/03 08:58:45;;;;;;;22.15;17.85;;;;;;;;;;4963202;28;20034;-75
2022/12/03 09:01:23;;;;;;;25.83;18.10;;;;;;;;;;4970407;28;20039;-76
2022/12/03 09:03:56;;;;;;;29.25;19.08;;;;;;;;;;4974442;28;20035;-75
2022/12/03 09:06:26;;;;;;;28.13;18.83;;;;;;;;;;4971047;28;20039;-76
2022/12/03 09:08:55;;;;;;;22.10;17.20;;;;;;;;;;4973757;28;20035;-75
2022/12/03 09:11:20;;;;;;;31.33;21.98;;;;;;;;;;4969998;28;20053;-75
2022/12/03 09:13:51;;;;;;;29.38;20.25;;;;;;;;;;4985931;28;20035;-76
2022/12/03 09:16:18;;;;;;;21.73;16.92;;;;;;;;;;4972006;28;20038;-76
2022/12/03 09:18:49;;;;;;;26.90;19.00;;;;;;;;;;4972351;28;20031;-75
2022/12/03 09:21:17;;;;;;;29.88;18.92;;;;;;;;;;4971647;28;20031;-75
2022/12/03 09:23:43;;;;;;;29.83;19.33;;;;;;;;;;4972542;28;20057;-75
2022/12/03 09:26:11;;;;;;;31.48;19.42;;;;;;;;;;4969297;28;20319;-76
2022/12/03 09:28:39;;;;;;;29.20;20.35;;;;;;;;;;4970935;28;20026;-75
2022/12/03 09:31:05;;;;;;;24.98;18.38;;;;;;;;;;4973056;28;20389;-76
2022/12/03 09:33:31;;;;;;;31.55;19.33;;;;;;;;;;4972643;28;20030;-75
2022/12/03 09:35:59;;;;;;;32.40;20.45;;;;;;;;;;4971218;28;20034;-75
2022/12/03 09:38:27;;;;;;;29.00;18.65;;;;;;;;;;4972248;28;20473;-75
2022/12/03 09:40:53;;;;;;;31.38;19.38;;;;;;;;;;4972163;28;20042;-76
2022/12/03 09:43:21;;;;;;;33.25;21.38;;;;;;;;;;4969753;28;20050;-75
2022/12/03 09:45:49;;;;;;;30.58;22.13;;;;;;;;;;4959519;28;20520;-76
2022/12/03 09:48:16;;;;;;;34.72;19.20;;;;;;;;;;4970509;28;20034;-75
2022/12/03 09:50:45;;;;;;;34.33;20.17;;;;;;;;;;4970636;28;20053;-76
2022/12/03 09:53:14;;;;;;;28.50;19.73;;;;;;;;;;4973349;28;20496;-75
2022/12/03 09:55:43;;;;;;;26.98;20.23;;;;;;;;;;4971890;28;20477;-75
2022/12/03 09:58:13;;;;;;;33.60;20.70;;;;;;;;;;4970073;28;20042;-75
2022/12/03 10:00:42;;;;;;;30.52;19.00;;;;;;;;;;4968103;28;20026;-75
2022/12/03 10:03:12;;;;;;;27.00;20.40;;;;;;;;;;4972051;28;20385;-73
2022/12/03 10:05:46;;;;;;;38.70;23.90;;;;;;;;;;4970780;28;20045;-73
2022/12/03 10:08:13;;;;;;;33.38;21.27;;;;;;;;;;4970136;28;20093;-73
2022/12/03 10:10:42;;;;;;;23.92;19.27;;;;;;;;;;4972511;28;20425;-73
2022/12/03 10:13:12;;;;;;;34.45;21.92;;;;;;;;;;4953662;28;20034;-73
2022/12/03 10:15:40;;;;;;;36.05;22.45;;;;;;;;;;4939048;28;20022;-73
2022/12/03 10:18:15;;;;;;;37.50;23.90;;;;;;;;;;4971695;28;20397;-73
2022/12/03 10:20:41;;;;;;;29.08;19.95;;;;;;;;;;4971297;28;20042;-73
2022/12/03 10:23:19;;;;;;;31.90;19.80;;;;;;;;;;4970745;28;20031;-73
2022/12/03 10:25:49;;;;;;;32.70;23.05;;;;;;;;;;4970830;28;20027;-73
2022/12/03 10:28:27;;;;;;;33.78;20.02;;;;;;;;;;4969288;28;20421;-73
2022/12/03 10:30:54;;;;;;;37.55;21.25;;;;;;;;;;4969375;28;20034;-73
2022/12/03 10:33:20;;;;;;;37.03;22.08;;;;;;;;;;4970366;28;20390;-73
2022/12/03 10:35:46;;;;;;;32.85;18.73;;;;;;;;;;4972597;28;20027;-73
2022/12/03 10:38:21;;;;;;;32.30;21.52;;;;;;;;;;4970611;28;20041;-73
2022/12/03 10:40:48;;;;;;;34.53;25.10;;;;;;;;;;4970650;28;20034;-73
2022/12/03 10:43:13;;;;;;;28.75;21.63;;;;;;;;;;4972141;28;20039;-73
2022/12/03 10:45:39;;;;;;;32.20;21.58;;;;;;;;;;4971865;28;20031;-73
2022/12/03 10:48:18;;;;;;;30.02;23.60;;;;;;;;;;4971400;28;20034;-73
2022/12/03 10:51:04;;;;;;;28.73;19.48;;;;;;;;;;4967513;28;20031;-73
2022/12/03 10:53:31;;;;;;;34.30;23.88;;;;;;;;;;4970559;28;20031;-73
2022/12/03 10:56:00;;;;;;;33.45;23.05;;;;;;;;;;4970742;28;20410;-73
2022/12/03 10:58:35;;;;;;;30.08;23.83;;;;;;;;;;4970384;28;20389;-73
2022/12/03 11:01:16;;;;;;;33.83;22.85;;;;;;;;;;4970918;28;20031;-73
2022/12/03 11:03:42;;;;;;;33.38;23.10;;;;;;;;;;4969026;28;20393;-73
2022/12/03 11:06:12;;;;;;;29.75;21.23;;;;;;;;;;4971445;28;20038;-73
2022/12/03 11:08:45;;;;;;;31.75;22.38;;;;;;;;;;4970112;28;20489;-73
2022/12/03 11:11:13;;;;;;;35.83;21.67;;;;;;;;;;4970793;28;20026;-73
2022/12/03 11:13:42;;;;;;;28.88;22.10;;;;;;;;;;4970473;28;20030;-73
2022/12/03 11:16:08;;;;;;;35.58;21.05;;;;;;;;;;4966445;28;20491;-73
2022/12/03 11:18:39;;;;;;;34.63;22.30;;;;;;;;;;4966431;28;20038;-73
2022/12/03 11:21:07;;;;;;;;;;;;;;;;;;4969543;28;20520;-73
2022/12/03 11:23:47;;;;;;;29.92;21.90;;;;;;;;;;4970610;28;19910;-73
2022/12/03 11:26:17;;;;;;;31.33;23.52;;;;;;;;;;4974525;28;20039;-73
2022/12/03 11:28:47;;;;;;;30.48;20.08;;;;;;;;;;4969629;28;20046;-73
2022/12/03 11:31:33;;;;;;;28.23;21.80;;;;;;;;;;4970410;28;20043;-73
2022/12/03 11:34:17;;;;;;;31.50;23.13;;;;;;;;;;4956247;28;20041;-73
2022/12/03 11:37:02;;;;;;;33.33;21.98;;;;;;;;;;4971352;28;20042;-73
2022/12/03 11:39:56;;;;;;;34.33;20.65;;;;;;;;;;4967986;28;20035;-74
2022/12/03 11:42:24;;;;;;;25.92;20.55;;;;;;;;;;4953416;28;20031;-75
2022/12/03 11:45:02;;;;;;;32.67;19.45;;;;;;;;;;4971096;28;20038;-76
2022/12/03 11:47:35;;;;;;;29.63;20.15;;;;;;;;;;4963063;28;20112;-75
2022/12/03 11:50:22;;;;;;;36.33;23.40;;;;;;;;;;4968287;28;20031;-73
2022/12/03 11:52:47;;;;;;;;;;;;;;;;;;4967664;28;20448;-75
2022/12/03 11:55:16;;;;;;;33.50;21.42;;;;;;;;;;4971006;28;19914;-74
2022/12/03 11:57:42;;;;;;;34.15;20.85;;;;;;;;;;4967730;28;20023;-75
2022/12/03 12:00:14;;;;;;;37.78;22.65;;;;;;;;;;4970188;28;20034;-75
2022/12/03 12:02:44;;;;;;;26.65;22.48;;;;;;;;;;4972023;28;20212;-75
2022/12/03 12:05:17;;;;;;;26.85;21.80;;;;;;;;;;4970999;28;20027;-75
2022/12/03 12:07:51;;;;;;;34.47;20.20;;;;;;;;;;4970023;28;20039;-75
2022/12/03 12:10:17;;;;;;;;;;;;;;;;;;4971122;28;20030;-75
2022/12/03 12:12:44;;;;;;;34.15;23.02;;;;;;;;;;4972788;28;19925;-75
2022/12/03 12:15:29;;;;;;;31.27;19.75;;;;;;;;;;4972177;28;20058;-75
2022/12/03 12:17:54;;;;;;;32.22;21.00;;;;;;;;;;4968294;28;20034;-75
2022/12/03 12:20:25;;;;;;;32.15;20.35;;;;;;;;;;4972003;28;20081;-75
2022/12/03 12:22:54;;;;;;;31.20;21.95;;;;;;;;;;4970506;28;20039;-75
2022/12/03 12:25:35;;;;;;;28.73;19.50;;;;;;;;;;4972672;28;20038;-75
2022/12/03 12:28:01;;;;;;;29.73;20.98;;;;;;;;;;4972992;28;20030;-75
2022/12/03 12:30:27;;;;;;;31.83;19.83;;;;;;;;;;4964463;28;20464;-72
2022/12/03 12:33:12;;;;;;;25.23;16.30;;;;;;;;;;4964433;28;20066;-73
2022/12/03 12:35:43;;;;;;;31.48;19.00;;;;;;;;;;4972664;28;20039;-75
2022/12/03 12:38:17;;;;;;;29.40;20.13;;;;;;;;;;4970348;28;20392;-75
2022/12/03 12:40:44;;;;;;;30.83;19.55;;;;;;;;;;4967694;28;20046;-74
2022/12/03 12:43:18;;;;;;;22.80;17.30;;;;;;;;;;4985103;28;20026;-75
2022/12/03 12:45:49;;;;;;;28.55;19.80;;;;;;;;;;4970380;28;20047;-75
2022/12/03 12:48:15;;;;;;;25.17;21.83;;;;;;;;;;4972667;28;20111;-75
2022/12/03 12:50:45;;;;;;;23.10;17.27;;;;;;;;;;4971995;28;20053;-75
2022/12/03 12:53:12;;;;;;;23.52;18.20;;;;;;;;;;4968455;28;20042;-75
2022/12/03 12:55:39;;;;;;;26.65;19.83;;;;;;;;;;4967547;28;20030;-73
2022/12/03 12:58:21;;;;;;;25.75;17.92;;;;;;;;;;4964183;28;20043;-72
2022/12/03 13:00:52;;;;;;;21.60;15.60;;;;;;;;;;4946698;28;20640;-71
2022/12/03 13:03:19;;;;;;;21.50;16.48;;;;;;;;;;4950492;28;20042;-72
2022/12/03 13:05:46;;;;;;;26.70;17.92;;;;;;;;;;4965564;28;20050;-71
2022/12/03 13:08:24;;;;;;;24.05;15.00;;;;;;;;;;4972576;28;20034;-71
2022/12/03 13:10:53;;;;;;;24.42;16.48;;;;;;;;;;4969500;28;20027;-71
2022/12/03 13:13:22;;;;;;;23.58;16.88;;;;;;;;;;4955801;28;20493;-72
2022/12/03 13:15:50;;;;;;;22.73;14.65;;;;;;;;;;4966476;28;20046;-73
2022/12/03 13:18:19;;;;;;;22.88;14.07;;;;;;;;;;4964404;28;20031;-73
2022/12/03 13:20:45;;;;;;;19.55;14.40;;;;;;;;;;4965421;28;20042;-73
2022/12/03 13:23:21;;;;;;;26.77;16.63;;;;;;;;;;4969794;28;20038;-73
2022/12/03 13:25:50;;;;;;;22.67;16.85;;;;;;;;;;4963873;28;20039;-71
2022/12/03 13:28:24;;;;;;;26.33;17.30;;;;;;;;;;4969696;28;20038;-72
2022/12/03 13:30:49;;;;;;;19.38;13.13;;;;;;;;;;4966266;28;20380;-71
2022/12/03 13:33:27;;;;;;;20.15;15.48;;;;;;;;;;4970176;28;20034;-72
2022/12/03 13:35:55;;;;;;;17.35;13.52;;;;;;;;;;4971259;28;20054;-71
2022/12/03 13:38:24;;;;;;;19.77;15.48;;;;;;;;;;4971777;28;20035;-71
2022/12/03 13:40:58;;;;;;;16.15;14.45;;;;;;;;;;4971530;28;20061;-71
2022/12/03 13:43:27;;;;;;;24.08;17.35;;;;;;;;;;4970904;28;20034;-71
2022/12/03 13:45:55;;;;;;;26.45;18.90;;;;;;;;;;4968537;28;20042;-71
2022/12/03 13:48:28;;;;;;;22.08;15.48;;;;;;;;;;4973264;28;20030;-71
2022/12/03 13:50:59;;;;;;;18.73;12.70;;;;;;;;;;4971459;28;20041;-71
2022/12/03 13:53:39;;;;;;;23.27;18.92;;;;;;;;;;4958420;28;20038;-71
2022/12/03 13:56:14;;;;;;;25.98;16.15;;;;;;;;;;4963726;28;20022;-72
2022/12/03 13:58:40;;;;;;;27.27;15.98;;;;;;;;;;4970295;28;20046;-72
2022/12/03 14:01:06;;;;;;;23.08;16.65;;;;;;;;;;4970218;28;20034;-72
2022/12/03 14:03:37;;;;;;;23.83;17.23;;;;;;;;;;4972901;28;20022;-72
2022/12/03 14:06:03;;;;;;;23.08;16.02;;;;;;;;;;4952742;28;20031;-73
2022/12/03 14:08:28;;;;;;;24.95;17.08;;;;;;;;;;4968960;28;20457;-72
2022/12/03 14:10:57;;;;;;;19.88;15.80;;;;;;;;;;4970948;28;20031;-72
2022/12/03 14:13:25;;;;;;;21.98;16.70;;;;;;;;;;4951704;28;20489;-72
2022/12/03 14:15:53;;;;;;;24.33;16.50;;;;;;;;;;4971594;28;20058;-72
2022/12/03 14:18:22;;;;;;;28.15;21.25;;;;;;;;;;4969393;28;20023;-72
2022/12/03 14:20:50;;;;;;;27.20;16.13;;;;;;;;;;4971930;28;20051;-71
2022/12/03 14:23:16;;;;;;;30.35;18.10;;;;;;;;;;4970552;28;20054;-71
2022/12/03 14:25:45;;;;;;;26.05;16.00;;;;;;;;;;4972464;28;20548;-72
2022/12/03 14:28:11;;;;;;;31.58;19.52;;;;;;;;;;4967259;28;20034;-71
2022/12/03 14:30:36;;;;;;;28.30;20.38;;;;;;;;;;4967323;28;20026;-71
2022/12/03 14:33:02;;;;;;;25.30;18.30;;;;;;;;;;4971054;28;20656;-71
2022/12/03 14:35:31;;;;;;;24.63;17.38;;;;;;;;;;4953749;28;20436;-71
2022/12/03 14:37:56;;;;;;;21.02;17.48;;;;;;;;;;4970641;28;20031;-71
2022/12/03 14:40:22;;;;;;;26.45;16.80;;;;;;;;;;4970663;28;20034;-70
2022/12/03 14:42:51;;;;;;;24.60;18.85;;;;;;;;;;4971007;28;20046;-76
2022/12/03 14:45:19;;;;;;;28.45;17.30;;;;;;;;;;4970325;28;20039;-71
2022/12/03 14:47:50;;;;;;;25.27;18.42;;;;;;;;;;4967719;28;20397;-71
2022/12/03 14:50:18;;;;;;;22.65;17.73;;;;;;;;;;4964691;28;20027;-70
2022/12/03 14:52:46;;;;;;;25.60;17.05;;;;;;;;;;4951289;28;20465;-71